Time;durP1;ratioP1;P1;durP2;ratioP2;P2;SDS_P1;SDS_P2;PMS_P1;PMS_P2;Temp;Humidity;BMP_temperature;BMP_pressure;BME280_temperature;BME280_humidity;BME280_pressure;Samples;Min_cycle;Max_cycle;Signal;HPM_P1;HPM_P2
2022/12/18 00:01:20;;;;;;;58.73;26.97;;;;;;;;;;4986772;28;20214;-67
2022/12/18 00:03:45;;;;;;;63.83;29.40;;;;;;;;;;4972627;28;20214;-67
2022/12/18 00:06:11;;;;;;;50.17;24.97;;;;;;;;;;4972783;28;20647;-67
2022/12/18 00:08:36;;;;;;;52.07;25.13;;;;;;;;;;4972906;28;20218;-67
2022/12/18 00:11:03;;;;;;;49.70;24.17;;;;;;;;;;4972033;28;20221;-67
2022/12/18 00:13:29;;;;;;;52.07;25.60;;;;;;;;;;4973381;28;20214;-67
2022/12/18 00:15:54;;;;;;;49.37;24.80;;;;;;;;;;4981478;28;20209;-68
2022/12/18 00:18:19;;;;;;;55.43;25.67;;;;;;;;;;4991224;28;20227;-65
2022/12/18 00:20:44;;;;;;;54.00;26.50;;;;;;;;;;4987738;28;20209;-68
2022/12/18 00:23:10;;;;;;;56.83;26.03;;;;;;;;;;4957875;28;20226;-67
2022/12/18 00:25:35;;;;;;;48.90;24.50;;;;;;;;;;4958947;28;20577;-67
2022/12/18 00:28:01;;;;;;;50.70;24.37;;;;;;;;;;4982065;28;20832;-65
2022/12/18 00:30:26;;;;;;;51.20;23.47;;;;;;;;;;4969687;28;20237;-68
2022/12/18 00:32:51;;;;;;;51.27;25.27;;;;;;;;;;4981437;28;20617;-67
2022/12/18 00:35:17;;;;;;;56.50;24.97;;;;;;;;;;4982494;28;20237;-67
2022/12/18 00:37:42;;;;;;;49.60;25.17;;;;;;;;;;4979030;28;20592;-67
2022/12/18 00:40:08;;;;;;;53.57;25.63;;;;;;;;;;4964457;28;20217;-67
2022/12/18 00:42:55;;;;;;;58.70;25.93;;;;;;;;;;4959326;28;20300;-68
2022/12/18 00:45:25;;;;;;;53.70;25.50;;;;;;;;;;4976770;28;20239;-67
2022/12/18 00:47:50;;;;;;;59.73;26.20;;;;;;;;;;4979532;28;20209;-67
2022/12/18 00:50:16;;;;;;;54.90;24.70;;;;;;;;;;4966701;28;20228;-67
2022/12/18 00:52:41;;;;;;;57.77;26.53;;;;;;;;;;4966185;28;20206;-68
2022/12/18 00:55:07;;;;;;;52.17;25.07;;;;;;;;;;4966422;28;20292;-67
2022/12/18 00:57:32;;;;;;;54.07;25.20;;;;;;;;;;4967018;28;20246;-67
2022/12/18 00:59:57;;;;;;;52.87;25.07;;;;;;;;;;4966550;28;20304;-67
2022/12/18 01:02:22;;;;;;;54.17;24.20;;;;;;;;;;4984551;28;20217;-67
2022/12/18 01:04:48;;;;;;;52.53;24.13;;;;;;;;;;4978452;28;20315;-67
2022/12/18 01:07:13;;;;;;;54.83;24.10;;;;;;;;;;4976557;28;20236;-67
2022/12/18 01:09:38;;;;;;;55.00;25.57;;;;;;;;;;4978430;28;20213;-68
2022/12/18 01:12:04;;;;;;;53.60;24.37;;;;;;;;;;4984979;28;20221;-67
2022/12/18 01:14:29;;;;;;;50.43;24.00;;;;;;;;;;4980033;28;20256;-67
2022/12/18 01:16:54;;;;;;;52.63;24.43;;;;;;;;;;4966782;28;20225;-68
2022/12/18 01:19:19;;;;;;;49.20;22.73;;;;;;;;;;4965969;28;20248;-67
2022/12/18 01:21:45;;;;;;;52.00;23.97;;;;;;;;;;4968281;28;20222;-67
2022/12/18 01:24:10;;;;;;;53.93;25.00;;;;;;;;;;4973796;28;20213;-67
2022/12/18 01:26:36;;;;;;;52.27;23.87;;;;;;;;;;4974703;28;20210;-67
2022/12/18 01:29:01;;;;;;;52.23;23.83;;;;;;;;;;4978573;28;20559;-66
2022/12/18 01:31:27;;;;;;;50.40;23.27;;;;;;;;;;4995139;28;20224;-68
2022/12/18 01:33:52;;;;;;;47.50;22.43;;;;;;;;;;4995076;28;20637;-67
2022/12/18 01:36:19;;;;;;;47.73;22.93;;;;;;;;;;4994090;28;20236;-67
2022/12/18 01:38:44;;;;;;;47.20;21.73;;;;;;;;;;4994807;28;20223;-67
2022/12/18 01:41:10;;;;;;;47.07;21.93;;;;;;;;;;4994401;28;20210;-67
2022/12/18 01:43:45;;;;;;;46.80;22.90;;;;;;;;;;4994351;28;20292;-67
2022/12/18 01:46:10;;;;;;;50.20;22.60;;;;;;;;;;4994373;28;20236;-67
2022/12/18 01:48:35;;;;;;;44.93;22.20;;;;;;;;;;4988109;28;20214;-67
2022/12/18 01:51:01;;;;;;;45.17;20.90;;;;;;;;;;4974192;28;20261;-65
2022/12/18 01:53:26;;;;;;;45.20;21.37;;;;;;;;;;4975265;28;20212;-67
2022/12/18 01:55:52;;;;;;;43.43;20.10;;;;;;;;;;4974090;28;20562;-67
2022/12/18 01:58:17;;;;;;;47.20;21.70;;;;;;;;;;4975850;28;20301;-67
2022/12/18 02:00:42;;;;;;;44.40;21.20;;;;;;;;;;5010134;28;20282;-68
2022/12/18 02:03:08;;;;;;;42.30;20.53;;;;;;;;;;5012827;28;20220;-67
2022/12/18 02:05:46;;;;;;;45.83;21.17;;;;;;;;;;5013797;28;20777;-67
2022/12/18 02:08:21;;;;;;;45.53;21.37;;;;;;;;;;5004368;28;20232;-67
2022/12/18 02:10:52;;;;;;;46.87;21.23;;;;;;;;;;5012878;28;20208;-67
2022/12/18 02:13:23;;;;;;;44.47;20.43;;;;;;;;;;5013401;28;20205;-67
2022/12/18 02:15:51;;;;;;;40.83;19.97;;;;;;;;;;4990296;28;20213;-67
2022/12/18 02:18:18;;;;;;;41.63;19.13;;;;;;;;;;4990972;28;20711;-67
2022/12/18 02:20:45;;;;;;;47.60;21.77;;;;;;;;;;4980330;28;20217;-67
2022/12/18 02:23:13;;;;;;;40.83;19.80;;;;;;;;;;4979271;28;20256;-67
2022/12/18 02:25:57;;;;;;;41.47;19.93;;;;;;;;;;4977712;28;20229;-67
2022/12/18 02:28:23;;;;;;;41.47;20.17;;;;;;;;;;4974431;28;20210;-67
2022/12/18 02:30:49;;;;;;;42.07;20.87;;;;;;;;;;4983521;28;20213;-67
2022/12/18 02:33:14;;;;;;;40.60;20.00;;;;;;;;;;4979104;28;20570;-67
2022/12/18 02:35:39;;;;;;;36.47;18.90;;;;;;;;;;4973308;28;20221;-67
2022/12/18 02:40:49;;;;;;;37.70;19.13;;;;;;;;;;4973957;28;20681;-67
2022/12/18 02:43:14;;;;;;;36.27;18.70;;;;;;;;;;4972634;28;20305;-67
2022/12/18 02:45:46;;;;;;;37.87;18.93;;;;;;;;;;4973574;28;20284;-67
2022/12/18 02:48:11;;;;;;;33.90;18.23;;;;;;;;;;4974055;28;20214;-67
2022/12/18 02:50:41;;;;;;;33.93;18.03;;;;;;;;;;4974167;28;20734;-67
2022/12/18 02:53:06;;;;;;;35.90;16.60;;;;;;;;;;4971827;28;20214;-67
2022/12/18 02:55:37;;;;;;;37.43;18.13;;;;;;;;;;4977480;28;20216;-67
2022/12/18 02:58:05;;;;;;;32.40;16.93;;;;;;;;;;5009599;28;20224;-66
2022/12/18 03:00:31;;;;;;;33.73;16.57;;;;;;;;;;4998163;28;20292;-67
2022/12/18 03:03:01;;;;;;;30.40;16.60;;;;;;;;;;4993337;28;20249;-67
2022/12/18 03:05:30;;;;;;;28.70;15.87;;;;;;;;;;4992027;28;20307;-67
2022/12/18 03:07:56;;;;;;;31.90;15.57;;;;;;;;;;4992780;28;20673;-68
2022/12/18 03:10:24;;;;;;;31.20;15.37;;;;;;;;;;4992982;28;20637;-67
2022/12/18 03:12:52;;;;;;;34.20;16.23;;;;;;;;;;4992557;28;20272;-67
2022/12/18 03:15:19;;;;;;;29.60;15.50;;;;;;;;;;4991417;28;20198;-67
2022/12/18 03:17:46;;;;;;;31.30;15.80;;;;;;;;;;4992076;28;20219;-67
2022/12/18 03:20:13;;;;;;;30.63;16.17;;;;;;;;;;4990953;28;20245;-67
2022/12/18 03:22:38;;;;;;;31.80;15.87;;;;;;;;;;4991511;28;20687;-67
2022/12/18 03:25:05;;;;;;;28.90;15.30;;;;;;;;;;4992806;28;20233;-67
2022/12/18 03:27:30;;;;;;;29.87;15.37;;;;;;;;;;4990803;28;20227;-67
2022/12/18 03:29:58;;;;;;;33.27;14.97;;;;;;;;;;4993052;28;20673;-69
2022/12/18 03:32:26;;;;;;;28.07;14.53;;;;;;;;;;4991262;28;20234;-67
2022/12/18 03:34:51;;;;;;;42.77;32.60;;;;;;;;;;5003392;28;20239;-67
2022/12/18 03:37:16;;;;;;;31.80;17.77;;;;;;;;;;5010781;28;20675;-67
2022/12/18 03:39:41;;;;;;;28.83;15.03;;;;;;;;;;5012745;28;20220;-67
2022/12/18 03:42:08;;;;;;;30.00;14.13;;;;;;;;;;5009811;28;20236;-67
2022/12/18 03:44:39;;;;;;;29.27;14.90;;;;;;;;;;5011358;28;20224;-65
2022/12/18 03:47:06;;;;;;;27.10;13.73;;;;;;;;;;5005093;28;20806;-65
2022/12/18 03:49:34;;;;;;;27.47;13.93;;;;;;;;;;4984587;28;20243;-65
2022/12/18 03:52:02;;;;;;;24.93;13.37;;;;;;;;;;4986349;28;20722;-66
2022/12/18 03:54:28;;;;;;;24.17;13.17;;;;;;;;;;4981059;28;20751;-65
2022/12/18 03:56:56;;;;;;;25.83;12.93;;;;;;;;;;4957882;28;20733;-65
2022/12/18 03:59:22;;;;;;;28.27;13.40;;;;;;;;;;4974443;28;20225;-65
2022/12/18 04:01:47;;;;;;;25.83;13.63;;;;;;;;;;4964087;28;20548;-66
2022/12/18 04:04:13;;;;;;;26.80;12.40;;;;;;;;;;4962678;28;20271;-66
2022/12/18 04:06:38;;;;;;;24.87;13.30;;;;;;;;;;4963924;28;20233;-65
2022/12/18 04:09:03;;;;;;;27.87;13.57;;;;;;;;;;4963011;28;20293;-65
2022/12/18 04:11:29;;;;;;;22.87;12.03;;;;;;;;;;4962454;28;20682;-65
2022/12/18 04:13:56;;;;;;;24.30;12.37;;;;;;;;;;4980661;28;20757;-66
2022/12/18 04:16:21;;;;;;;23.63;12.70;;;;;;;;;;4966661;28;20253;-66
2022/12/18 04:18:46;;;;;;;26.50;12.83;;;;;;;;;;4959173;28;20272;-66
2022/12/18 04:21:11;;;;;;;25.60;13.43;;;;;;;;;;4962400;28;20712;-65
2022/12/18 04:23:37;;;;;;;24.60;13.20;;;;;;;;;;4966877;28;20234;-65
2022/12/18 04:26:02;;;;;;;23.03;11.87;;;;;;;;;;4966969;28;20324;-65
2022/12/18 04:28:27;;;;;;;24.03;11.80;;;;;;;;;;4985966;28;20685;-65
2022/12/18 04:30:53;;;;;;;23.03;11.70;;;;;;;;;;4985561;28;20214;-65
2022/12/18 04:33:18;;;;;;;25.37;13.50;;;;;;;;;;4985783;28;20217;-65
2022/12/18 04:35:43;;;;;;;27.57;12.70;;;;;;;;;;4965913;28;20285;-66
2022/12/18 04:38:09;;;;;;;24.43;12.87;;;;;;;;;;4958716;28;20213;-65
2022/12/18 04:40:35;;;;;;;25.20;12.33;;;;;;;;;;4977942;28;20217;-66
2022/12/18 04:43:00;;;;;;;22.03;12.03;;;;;;;;;;4978677;28;20263;-64
2022/12/18 04:45:25;;;;;;;23.57;12.57;;;;;;;;;;4985549;28;20232;-65
2022/12/18 04:47:51;;;;;;;22.30;12.10;;;;;;;;;;4985859;28;20212;-66
2022/12/18 04:50:16;;;;;;;26.13;12.77;;;;;;;;;;4985401;28;20221;-65
2022/12/18 04:52:41;;;;;;;26.13;12.90;;;;;;;;;;4985059;28;20696;-65
2022/12/18 04:55:07;;;;;;;23.83;12.30;;;;;;;;;;4982786;28;20213;-65
2022/12/18 04:57:32;;;;;;;22.57;12.20;;;;;;;;;;4983869;28;20641;-65
2022/12/18 04:59:57;;;;;;;23.43;10.93;;;;;;;;;;4969838;28;20255;-65
2022/12/18 05:02:22;;;;;;;20.70;10.83;;;;;;;;;;4976694;28;20248;-66
2022/12/18 05:04:48;;;;;;;24.93;12.10;;;;;;;;;;4977382;28;20264;-65
2022/12/18 05:07:13;;;;;;;23.13;11.40;;;;;;;;;;4983122;28;20563;-65
2022/12/18 05:09:38;;;;;;;19.53;11.70;;;;;;;;;;4985738;28;20221;-65
2022/12/18 05:12:04;;;;;;;22.90;11.37;;;;;;;;;;4985322;28;20243;-65
2022/12/18 05:14:29;;;;;;;23.40;11.30;;;;;;;;;;4984519;28;20253;-65
2022/12/18 05:16:54;;;;;;;23.63;12.17;;;;;;;;;;4969607;28;20220;-66
2022/12/18 05:19:20;;;;;;;22.73;11.83;;;;;;;;;;4965016;28;20221;-65
2022/12/18 05:21:45;;;;;;;24.47;12.17;;;;;;;;;;4962298;28;20226;-66
2022/12/18 05:24:10;;;;;;;22.20;11.63;;;;;;;;;;4957301;28;20613;-65
2022/12/18 05:26:35;;;;;;;23.50;11.60;;;;;;;;;;4957149;28;20591;-65
2022/12/18 05:29:00;;;;;;;22.40;11.50;;;;;;;;;;4961552;28;20233;-63
2022/12/18 05:31:26;;;;;;;24.00;11.07;;;;;;;;;;4965989;28;20248;-65
2022/12/18 05:33:51;;;;;;;21.63;11.57;;;;;;;;;;4965777;28;20696;-65
2022/12/18 05:36:16;;;;;;;22.60;11.37;;;;;;;;;;4965893;28;20224;-66
2022/12/18 05:38:42;;;;;;;22.03;12.17;;;;;;;;;;4965622;28;20218;-65
2022/12/18 05:41:07;;;;;;;24.70;11.90;;;;;;;;;;4964846;28;20740;-65
2022/12/18 05:43:33;;;;;;;21.80;11.00;;;;;;;;;;4964115;28;20619;-66
2022/12/18 05:46:01;;;;;;;23.17;12.47;;;;;;;;;;4958244;28;20229;-66
2022/12/18 05:48:26;;;;;;;22.57;12.10;;;;;;;;;;4990445;28;20220;-65
2022/12/18 05:50:52;;;;;;;26.37;11.47;;;;;;;;;;4985989;28;20217;-68
2022/12/18 05:53:19;;;;;;;21.47;12.13;;;;;;;;;;4984419;28;20429;-68
2022/12/18 05:55:44;;;;;;;21.60;11.37;;;;;;;;;;4976176;28;20237;-67
2022/12/18 05:58:10;;;;;;;22.20;11.27;;;;;;;;;;4965726;28;20245;-70
2022/12/18 06:00:39;;;;;;;22.10;11.03;;;;;;;;;;4965870;28;20226;-70
2022/12/18 06:03:05;;;;;;;23.43;11.47;;;;;;;;;;4982887;28;20228;-70
2022/12/18 06:05:34;;;;;;;23.23;11.87;;;;;;;;;;4978088;28;20238;-72
2022/12/18 06:07:59;;;;;;;20.80;11.27;;;;;;;;;;4960481;28;20428;-73
2022/12/18 06:10:24;;;;;;;19.40;11.00;;;;;;;;;;4956535;28;20221;-73
2022/12/18 06:12:49;;;;;;;21.23;12.07;;;;;;;;;;4958299;28;20644;-73
2022/12/18 06:15:15;;;;;;;21.73;11.33;;;;;;;;;;4964048;28;20210;-73
2022/12/18 06:17:40;;;;;;;22.67;11.87;;;;;;;;;;4964080;28;20210;-73
2022/12/18 06:20:06;;;;;;;20.70;11.60;;;;;;;;;;4965086;28;20249;-67
2022/12/18 06:22:32;;;;;;;20.13;11.00;;;;;;;;;;4965096;28;20213;-67
2022/12/18 06:24:57;;;;;;;21.60;13.27;;;;;;;;;;4963858;28;20445;-71
2022/12/18 06:27:22;;;;;;;20.03;11.47;;;;;;;;;;4964447;28;20213;-70
2022/12/18 06:29:47;;;;;;;22.30;11.13;;;;;;;;;;4960076;28;20210;-70
2022/12/18 06:32:13;;;;;;;24.90;11.73;;;;;;;;;;4956064;28;20799;-70
2022/12/18 06:34:39;;;;;;;21.70;11.20;;;;;;;;;;4965322;28;20437;-67
2022/12/18 06:37:04;;;;;;;21.23;11.43;;;;;;;;;;4964775;28;20220;-69
2022/12/18 06:39:30;;;;;;;22.20;11.23;;;;;;;;;;4963380;28;20217;-69
2022/12/18 06:41:55;;;;;;;22.50;11.70;;;;;;;;;;4964906;28;20226;-69
2022/12/18 06:44:20;;;;;;;21.07;11.30;;;;;;;;;;4963652;28;20554;-69
2022/12/18 06:46:45;;;;;;;19.23;10.90;;;;;;;;;;4966427;28;20269;-69
2022/12/18 06:49:11;;;;;;;21.43;11.57;;;;;;;;;;4980062;28;20210;-68
2022/12/18 06:51:36;;;;;;;20.87;10.37;;;;;;;;;;4992841;28;20205;-69
2022/12/18 06:54:01;;;;;;;20.40;11.33;;;;;;;;;;4993410;28;20268;-68
2022/12/18 06:56:26;;;;;;;21.43;11.20;;;;;;;;;;4996709;28;20216;-69
2022/12/18 06:58:52;;;;;;;23.27;11.97;;;;;;;;;;5011545;28;20659;-68
2022/12/18 07:01:17;;;;;;;18.67;10.23;;;;;;;;;;4992670;28;20359;-68
2022/12/18 07:03:42;;;;;;;20.00;10.30;;;;;;;;;;4993325;28;20201;-69
2022/12/18 07:06:13;;;;;;;19.97;10.30;;;;;;;;;;4991841;28;20594;-68
2022/12/18 07:08:38;;;;;;;21.10;11.80;;;;;;;;;;4992365;28;20217;-69
2022/12/18 07:11:04;;;;;;;20.40;11.17;;;;;;;;;;4992815;28;20690;-68
2022/12/18 07:13:29;;;;;;;22.33;10.90;;;;;;;;;;4992317;28;20677;-68
2022/12/18 07:15:54;;;;;;;21.90;11.03;;;;;;;;;;4993124;28;20221;-68
2022/12/18 07:18:20;;;;;;;20.60;11.20;;;;;;;;;;4992433;28;20244;-69
2022/12/18 07:20:45;;;;;;;19.97;11.07;;;;;;;;;;4992279;28;20236;-69
2022/12/18 07:23:10;;;;;;;18.17;10.00;;;;;;;;;;4992577;28;20224;-68
2022/12/18 07:25:36;;;;;;;20.47;10.37;;;;;;;;;;4993055;28;20290;-69
2022/12/18 07:28:01;;;;;;;20.80;11.67;;;;;;;;;;4991860;28;20233;-67
2022/12/18 07:30:26;;;;;;;21.07;10.97;;;;;;;;;;4992960;28;20240;-68
2022/12/18 07:32:51;;;;;;;20.10;10.83;;;;;;;;;;4992634;28;20209;-69
2022/12/18 07:35:17;;;;;;;21.77;11.40;;;;;;;;;;5006403;28;20212;-69
2022/12/18 07:37:42;;;;;;;22.40;11.63;;;;;;;;;;5012515;28;20216;-69
2022/12/18 07:40:08;;;;;;;22.37;11.23;;;;;;;;;;5011429;28;20714;-68
2022/12/18 07:42:33;;;;;;;22.20;11.10;;;;;;;;;;5012353;28;20208;-68
2022/12/18 07:44:59;;;;;;;19.87;10.23;;;;;;;;;;5012560;28;20225;-69
2022/12/18 07:47:24;;;;;;;17.83;10.10;;;;;;;;;;4997468;28;20312;-69
2022/12/18 07:49:49;;;;;;;21.43;11.20;;;;;;;;;;5001436;28;20243;-69
2022/12/18 07:52:15;;;;;;;20.60;11.20;;;;;;;;;;4997871;28;20209;-68
2022/12/18 07:54:40;;;;;;;21.53;11.30;;;;;;;;;;4998024;28;20231;-68
2022/12/18 07:57:05;;;;;;;22.43;11.20;;;;;;;;;;4998004;28;20216;-67
2022/12/18 07:59:31;;;;;;;20.03;10.87;;;;;;;;;;5002955;28;20231;-68
2022/12/18 08:01:56;;;;;;;23.63;11.07;;;;;;;;;;4995947;28;20714;-69
2022/12/18 08:04:21;;;;;;;20.03;11.43;;;;;;;;;;4996040;28;20267;-69
2022/12/18 08:06:46;;;;;;;22.40;11.67;;;;;;;;;;4996572;28;20279;-69
2022/12/18 08:09:12;;;;;;;21.83;12.10;;;;;;;;;;4995481;28;20221;-68
2022/12/18 08:11:37;;;;;;;27.73;13.13;;;;;;;;;;4996670;28;20220;-69
2022/12/18 08:14:02;;;;;;;25.30;11.87;;;;;;;;;;4995996;28;20239;-68
2022/12/18 08:16:28;;;;;;;22.50;11.93;;;;;;;;;;5008487;28;20220;-68
2022/12/18 08:18:53;;;;;;;23.93;11.83;;;;;;;;;;5015765;28;20208;-69
2022/12/18 08:21:20;;;;;;;26.97;13.17;;;;;;;;;;5015558;28;20307;-68
2022/12/18 08:23:46;;;;;;;25.47;13.27;;;;;;;;;;5015099;28;20220;-69
2022/12/18 08:26:11;;;;;;;22.77;12.10;;;;;;;;;;5015590;28;20233;-70
2022/12/18 08:28:36;;;;;;;27.43;12.57;;;;;;;;;;5015748;28;20250;-69
2022/12/18 08:31:02;;;;;;;22.30;11.47;;;;;;;;;;5014657;28;20231;-68
2022/12/18 08:33:27;;;;;;;23.13;11.77;;;;;;;;;;5015478;28;20275;-69
2022/12/18 08:35:52;;;;;;;22.77;11.67;;;;;;;;;;5015922;28;20204;-69
2022/12/18 08:38:18;;;;;;;23.10;12.00;;;;;;;;;;5014413;28;20248;-69
2022/12/18 08:40:43;;;;;;;23.73;11.60;;;;;;;;;;5015625;28;20212;-69
2022/12/18 08:45:53;;;;;;;20.93;11.17;;;;;;;;;;5015717;28;20282;-69
2022/12/18 08:48:18;;;;;;;20.93;10.97;;;;;;;;;;5014870;28;20212;-69
2022/12/18 08:50:43;;;;;;;21.27;11.20;;;;;;;;;;5014576;28;20205;-69
2022/12/18 08:53:09;;;;;;;19.20;10.23;;;;;;;;;;5014868;28;20283;-69
2022/12/18 08:55:34;;;;;;;19.37;10.30;;;;;;;;;;5011392;28;20209;-69
2022/12/18 08:57:59;;;;;;;18.33;9.13;;;;;;;;;;4995033;28;20216;-69
2022/12/18 09:00:25;;;;;;;17.83;9.60;;;;;;;;;;5008469;28;20574;-68
2022/12/18 09:02:50;;;;;;;19.57;10.03;;;;;;;;;;5015115;28;20200;-69
2022/12/18 09:05:15;;;;;;;19.83;10.13;;;;;;;;;;5013397;28;20335;-69
2022/12/18 09:07:41;;;;;;;20.50;10.60;;;;;;;;;;5015279;28;20219;-69
2022/12/18 09:10:06;;;;;;;24.37;11.63;;;;;;;;;;5014463;28;20221;-68
2022/12/18 09:12:31;;;;;;;18.20;9.77;;;;;;;;;;5014196;28;20212;-69
2022/12/18 09:14:57;;;;;;;20.27;9.77;;;;;;;;;;5014273;28;20767;-69
2022/12/18 09:17:22;;;;;;;15.87;8.53;;;;;;;;;;4994936;28;20348;-69
2022/12/18 09:19:47;;;;;;;19.73;8.63;;;;;;;;;;4994318;28;20332;-69
2022/12/18 09:22:13;;;;;;;15.50;8.13;;;;;;;;;;4994684;28;20730;-69
2022/12/18 09:24:38;;;;;;;17.00;9.13;;;;;;;;;;4995039;28;20237;-69
2022/12/18 09:27:03;;;;;;;15.73;8.40;;;;;;;;;;4993941;28;20213;-68
2022/12/18 09:29:29;;;;;;;18.00;9.00;;;;;;;;;;4994938;28;20223;-69
2022/12/18 09:31:54;;;;;;;14.50;7.23;;;;;;;;;;4995065;28;20223;-69
2022/12/18 09:34:21;;;;;;;15.13;8.03;;;;;;;;;;4993776;28;20210;-69
2022/12/18 09:36:46;;;;;;;18.10;8.57;;;;;;;;;;4995006;28;20213;-69
2022/12/18 09:39:12;;;;;;;16.37;8.03;;;;;;;;;;4994477;28;20220;-69
2022/12/18 09:41:37;;;;;;;15.37;7.87;;;;;;;;;;4993994;28;20213;-69
2022/12/18 09:44:25;;;;;;;15.40;8.13;;;;;;;;;;4994558;28;20247;-68
2022/12/18 09:47:01;;;;;;;16.30;8.20;;;;;;;;;;4994035;28;20572;-69
2022/12/18 09:49:26;;;;;;;14.37;7.73;;;;;;;;;;4981748;28;20213;-69
2022/12/18 09:51:52;;;;;;;14.93;8.03;;;;;;;;;;4973854;28;20214;-69
2022/12/18 09:54:20;;;;;;;16.30;7.97;;;;;;;;;;4973927;28;20305;-69
2022/12/18 09:56:45;;;;;;;16.77;8.77;;;;;;;;;;4988811;28;20212;-69
2022/12/18 09:59:21;;;;;;;15.07;7.63;;;;;;;;;;4993290;28;20205;-69
2022/12/18 10:01:46;;;;;;;16.33;8.43;;;;;;;;;;4993674;28;20223;-69
2022/12/18 10:04:11;;;;;;;16.70;8.23;;;;;;;;;;4994368;28;20213;-69
2022/12/18 10:06:41;;;;;;;15.67;7.70;;;;;;;;;;4993938;28;20232;-69
2022/12/18 10:09:10;;;;;;;15.57;7.77;;;;;;;;;;4993275;28;20673;-68
2022/12/18 10:11:38;;;;;;;16.23;8.43;;;;;;;;;;4984442;28;20259;-69
2022/12/18 10:14:08;;;;;;;13.80;7.63;;;;;;;;;;4993976;28;20220;-68
2022/12/18 10:16:43;;;;;;;15.07;8.40;;;;;;;;;;4994181;28;20254;-69
2022/12/18 10:19:09;;;;;;;17.30;8.47;;;;;;;;;;4992443;28;20216;-69
2022/12/18 10:21:40;;;;;;;14.27;7.93;;;;;;;;;;4994006;28;20232;-69
2022/12/18 10:24:13;;;;;;;14.83;8.00;;;;;;;;;;4993224;28;20711;-68
2022/12/18 10:26:40;;;;;;;15.07;7.80;;;;;;;;;;4994021;28;20233;-69
2022/12/18 10:29:11;;;;;;;16.93;8.50;;;;;;;;;;4991770;28;20696;-69
2022/12/18 10:31:37;;;;;;;15.90;8.00;;;;;;;;;;4992304;28;20221;-69
2022/12/18 10:34:02;;;;;;;14.40;8.43;;;;;;;;;;4982554;28;20227;-69
2022/12/18 10:36:27;;;;;;;16.87;8.67;;;;;;;;;;4987011;28;20298;-69
2022/12/18 10:38:53;;;;;;;14.87;8.43;;;;;;;;;;4986347;28;20802;-69
2022/12/18 10:41:21;;;;;;;14.77;8.67;;;;;;;;;;4987282;28;20227;-69
2022/12/18 10:43:47;;;;;;;15.80;8.67;;;;;;;;;;4987353;28;20688;-69
2022/12/18 10:46:14;;;;;;;14.67;8.07;;;;;;;;;;4986884;28;20847;-69
2022/12/18 10:48:40;;;;;;;16.23;8.63;;;;;;;;;;4986643;28;20213;-69
2022/12/18 10:51:06;;;;;;;17.03;8.80;;;;;;;;;;4984751;28;20300;-68
2022/12/18 10:53:32;;;;;;;14.90;8.33;;;;;;;;;;4987709;28;20263;-69
2022/12/18 10:56:04;;;;;;;15.97;8.60;;;;;;;;;;4987677;28;20213;-69
2022/12/18 10:58:32;;;;;;;15.47;8.57;;;;;;;;;;4994373;28;20315;-69
2022/12/18 11:01:03;;;;;;;14.63;8.20;;;;;;;;;;4987045;28;20252;-69
2022/12/18 11:03:30;;;;;;;14.37;7.80;;;;;;;;;;4995366;28;20221;-69
2022/12/18 11:06:03;;;;;;;15.83;8.77;;;;;;;;;;4986738;28;20237;-69
2022/12/18 11:08:28;;;;;;;18.83;9.43;;;;;;;;;;4994704;28;20220;-69
2022/12/18 11:10:53;;;;;;;14.80;8.03;;;;;;;;;;4987447;28;20615;-69
2022/12/18 11:13:20;;;;;;;13.87;7.70;;;;;;;;;;4986514;28;20213;-69
2022/12/18 11:15:45;;;;;;;15.70;8.57;;;;;;;;;;4985871;28;20213;-69
2022/12/18 11:18:20;;;;;;;16.87;9.10;;;;;;;;;;4986415;28;20243;-69
2022/12/18 11:20:53;;;;;;;16.53;8.60;;;;;;;;;;4986280;28;20217;-69
2022/12/18 11:23:18;;;;;;;17.27;8.90;;;;;;;;;;4985493;28;20249;-69
2022/12/18 11:25:50;;;;;;;23.80;12.40;;;;;;;;;;4985205;28;20241;-69
2022/12/18 11:28:33;;;;;;;18.70;10.67;;;;;;;;;;4985206;28;20257;-69
2022/12/18 11:31:09;;;;;;;23.83;13.80;;;;;;;;;;4986748;28;20216;-70
2022/12/18 11:33:35;;;;;;;64.37;36.40;;;;;;;;;;4995016;28;20208;-71
2022/12/18 11:36:03;;;;;;;50.97;33.70;;;;;;;;;;4986785;28;20217;-72
2022/12/18 11:38:29;;;;;;;27.93;19.93;;;;;;;;;;5008134;28;20223;-72
2022/12/18 11:40:56;;;;;;;15.80;9.30;;;;;;;;;;5003431;28;20877;-71
2022/12/18 11:43:22;;;;;;;17.07;10.77;;;;;;;;;;4988863;28;20844;-68
2022/12/18 11:45:52;;;;;;;15.10;9.33;;;;;;;;;;4986542;28;20676;-68
2022/12/18 11:48:19;;;;;;;17.83;12.23;;;;;;;;;;4973102;28;20752;-70
2022/12/18 11:50:55;;;;;;;16.40;9.07;;;;;;;;;;5006068;28;20690;-72
2022/12/18 11:53:20;;;;;;;29.03;18.83;;;;;;;;;;4991350;28;20222;-72
2022/12/18 11:56:04;;;;;;;19.17;11.97;;;;;;;;;;4996235;28;20217;-72
2022/12/18 11:58:32;;;;;;;13.77;8.63;;;;;;;;;;4987093;28;20279;-69
2022/12/18 12:01:05;;;;;;;21.70;11.30;;;;;;;;;;4998116;28;20249;-75
2022/12/18 12:03:40;;;;;;;19.30;11.67;;;;;;;;;;4996008;28;20215;-72
2022/12/18 12:06:10;;;;;;;19.57;11.17;;;;;;;;;;4989384;28;20237;-71
2022/12/18 12:08:39;;;;;;;15.83;8.60;;;;;;;;;;4989377;28;20240;-73
2022/12/18 12:11:04;;;;;;;17.37;11.03;;;;;;;;;;5001953;28;20212;-71
2022/12/18 12:13:30;;;;;;;25.70;17.10;;;;;;;;;;4993730;28;20215;-73
2022/12/18 12:15:56;;;;;;;18.97;10.73;;;;;;;;;;4997010;28;20833;-74
2022/12/18 12:18:39;;;;;;;17.53;10.20;;;;;;;;;;4986921;28;20216;-73
2022/12/18 12:21:08;;;;;;;15.57;8.73;;;;;;;;;;4991904;28;20355;-73
2022/12/18 12:23:38;;;;;;;32.77;16.67;;;;;;;;;;4993701;28;20217;-74
2022/12/18 12:26:06;;;;;;;15.57;9.30;;;;;;;;;;4998705;28;20246;-73
2022/12/18 12:28:38;;;;;;;77.53;46.07;;;;;;;;;;4984391;28;20263;-73
2022/12/18 12:31:10;;;;;;;103.37;52.77;;;;;;;;;;4994798;28;20755;-73
2022/12/18 12:33:48;;;;;;;16.47;9.50;;;;;;;;;;4992255;28;20250;-73
2022/12/18 12:36:37;;;;;;;99.73;60.00;;;;;;;;;;5004000;28;20539;-73
2022/12/18 12:39:05;;;;;;;16.27;9.60;;;;;;;;;;5005550;28;20247;-73
2022/12/18 12:44:34;;;;;;;18.17;9.37;;;;;;;;;;5004257;28;20215;-74
2022/12/18 12:47:00;;;;;;;13.03;8.27;;;;;;;;;;4998749;28;20217;-74
2022/12/18 12:49:26;;;;;;;14.97;8.60;;;;;;;;;;4972835;28;20695;-74
2022/12/18 12:51:59;;;;;;;14.80;8.77;;;;;;;;;;4991146;28;20213;-74
2022/12/18 12:54:25;;;;;;;23.27;17.60;;;;;;;;;;5000235;28;20256;-74
2022/12/18 12:57:00;;;;;;;15.47;9.83;;;;;;;;;;5002829;28;20745;-74
2022/12/18 12:59:31;;;;;;;17.27;10.77;;;;;;;;;;5018061;28;21152;-74
2022/12/18 13:02:03;;;;;;;15.40;9.10;;;;;;;;;;5013946;28;20219;-74
2022/12/18 13:04:36;;;;;;;15.00;8.83;;;;;;;;;;5011517;28;20212;-74
2022/12/18 13:07:20;;;;;;;16.60;9.30;;;;;;;;;;5019765;28;20237;-73
2022/12/18 13:10:04;;;;;;;16.83;9.47;;;;;;;;;;5007702;28;20551;-73
2022/12/18 13:12:56;;;;;;;18.13;9.90;;;;;;;;;;4993596;28;20680;-74
2022/12/18 13:15:22;;;;;;;26.07;11.73;;;;;;;;;;4994274;28;20297;-73
2022/12/18 13:17:48;;;;;;;19.53;9.50;;;;;;;;;;5006209;28;20688;-74
2022/12/18 13:20:14;;;;;;;15.03;8.20;;;;;;;;;;5012035;28;20234;-73
2022/12/18 13:22:44;;;;;;;15.37;8.83;;;;;;;;;;5017544;28;20214;-72
2022/12/18 13:25:35;;;;;;;15.87;8.80;;;;;;;;;;5020535;28;20707;-74
2022/12/18 13:28:01;;;;;;;15.70;8.80;;;;;;;;;;5010718;28;20220;-65
2022/12/18 13:30:31;;;;;;;19.20;9.63;;;;;;;;;;5002827;28;20266;-74
2022/12/18 13:33:13;;;;;;;17.67;8.53;;;;;;;;;;5016544;28;20685;-74
2022/12/18 13:35:39;;;;;;;18.90;9.50;;;;;;;;;;4993834;28;20209;-74
2022/12/18 13:38:21;;;;;;;18.23;10.70;;;;;;;;;;4995723;28;20587;-73
2022/12/18 13:40:47;;;;;;;16.80;10.70;;;;;;;;;;4999587;28;20272;-73
2022/12/18 13:43:20;;;;;;;17.67;8.50;;;;;;;;;;4999724;28;20213;-73
2022/12/18 13:45:46;;;;;;;14.77;8.47;;;;;;;;;;4987649;28;20624;-73
2022/12/18 13:48:14;;;;;;;14.47;8.37;;;;;;;;;;4999025;28;20227;-71
2022/12/18 13:50:40;;;;;;;15.23;8.57;;;;;;;;;;4995275;28;20806;-72
2022/12/18 13:53:06;;;;;;;18.23;9.87;;;;;;;;;;4991746;28;20208;-71
2022/12/18 13:55:31;;;;;;;16.87;9.77;;;;;;;;;;4988600;28;20213;-72
2022/12/18 13:58:03;;;;;;;17.90;10.73;;;;;;;;;;4989181;28;20571;-72
2022/12/18 14:00:29;;;;;;;17.23;9.87;;;;;;;;;;5001662;28;20229;-72
2022/12/18 14:02:54;;;;;;;15.07;9.03;;;;;;;;;;4995218;28;20887;-72
2022/12/18 14:05:22;;;;;;;17.33;9.47;;;;;;;;;;4996723;28;20246;-71
2022/12/18 14:07:48;;;;;;;19.10;9.60;;;;;;;;;;4992438;28;20217;-71
2022/12/18 14:10:13;;;;;;;18.10;9.70;;;;;;;;;;4998411;28;20215;-72
2022/12/18 14:12:56;;;;;;;20.90;9.80;;;;;;;;;;4997907;28;20209;-74
2022/12/18 14:15:24;;;;;;;17.13;9.53;;;;;;;;;;4998521;28;20212;-74
2022/12/18 14:17:50;;;;;;;20.63;9.73;;;;;;;;;;5000374;28;20216;-74
2022/12/18 14:20:15;;;;;;;15.03;9.13;;;;;;;;;;5002959;28;20223;-74
2022/12/18 14:22:42;;;;;;;17.70;9.77;;;;;;;;;;5006889;28;20743;-74
2022/12/18 14:25:31;;;;;;;15.40;9.30;;;;;;;;;;4998229;28;20229;-74
2022/12/18 14:28:11;;;;;;;17.47;8.87;;;;;;;;;;4997463;28;20757;-74
2022/12/18 14:30:37;;;;;;;19.33;9.77;;;;;;;;;;4995007;28;20237;-75